Time;durP1;ratioP1;P1;durP2;ratioP2;P2;SDS_P1;SDS_P2;PMS_P1;PMS_P2;Temp;Humidity;BMP_temperature;BMP_pressure;BME280_temperature;BME280_humidity;BME280_pressure;Samples;Min_cycle;Max_cycle;Signal;HPM_P1;HPM_P2
2023/01/21 00:00:55;;;;;;;45.55;24.27;;;-0.10;99.90;;;;;;5054509;28;20033;-59
2023/01/21 00:03:21;;;;;;;48.70;26.48;;;-0.10;99.90;;;;;;5053241;28;20048;-59
2023/01/21 00:05:47;;;;;;;44.53;25.80;;;-0.10;99.90;;;;;;5052835;28;20029;-60
2023/01/21 00:08:12;;;;;;;45.20;25.98;;;0.00;99.90;;;;;;5054931;28;20025;-61
2023/01/21 00:10:38;;;;;;;49.17;25.67;;;0.00;99.90;;;;;;5052947;28;20364;-60
2023/01/21 00:13:04;;;;;;;43.42;22.95;;;0.00;99.90;;;;;;5054405;28;20036;-60
2023/01/21 00:15:29;;;;;;;47.88;25.17;;;-0.10;99.90;;;;;;5054168;28;20036;-60
2023/01/21 00:17:55;;;;;;;48.95;25.25;;;-0.10;99.90;;;;;;5054675;28;20041;-57
2023/01/21 00:20:21;;;;;;;48.47;26.08;;;-0.10;99.90;;;;;;5056647;28;21648;-60
2023/01/21 00:22:46;;;;;;;41.83;23.88;;;0.00;99.90;;;;;;5052050;28;20037;-63
2023/01/21 00:25:12;;;;;;;48.78;25.98;;;0.00;99.90;;;;;;5051971;28;20033;-59
2023/01/21 00:27:37;;;;;;;46.83;25.48;;;-0.10;99.90;;;;;;5054637;28;20116;-60
2023/01/21 00:30:03;;;;;;;52.63;25.25;;;-0.10;99.90;;;;;;5056512;28;20091;-60
2023/01/21 00:32:29;;;;;;;50.13;25.77;;;0.00;99.90;;;;;;5056065;28;20037;-58
2023/01/21 00:34:55;;;;;;;50.92;26.50;;;0.00;99.90;;;;;;5053911;28;20109;-59
2023/01/21 00:37:20;;;;;;;45.10;24.45;;;-0.10;99.90;;;;;;5051977;28;20401;-60
2023/01/21 00:39:46;;;;;;;48.40;26.92;;;-0.20;99.90;;;;;;5049840;28;20638;-59
2023/01/21 00:42:11;;;;;;;46.97;26.70;;;0.00;99.90;;;;;;5053041;28;20500;-60
2023/01/21 00:44:37;;;;;;;48.55;28.05;;;0.10;99.90;;;;;;5054766;28;20354;-59
2023/01/21 00:47:04;;;;;;;48.80;27.17;;;1.70;99.90;;;;;;5054791;28;20041;-57
2023/01/21 00:49:30;;;;;;;46.83;26.10;;;0.40;99.90;;;;;;5053916;28;20044;-55
2023/01/21 00:51:56;;;;;;;51.60;26.55;;;0.50;99.90;;;;;;5050919;28;20047;-57
2023/01/21 00:54:22;;;;;;;47.75;26.27;;;0.40;99.90;;;;;;5059100;28;20052;-60
2023/01/21 00:56:47;;;;;;;50.83;27.85;;;0.10;99.90;;;;;;5059615;28;20051;-55
2023/01/21 00:59:13;;;;;;;47.03;24.98;;;0.10;99.90;;;;;;5058677;28;20750;-59
2023/01/21 01:01:38;;;;;;;43.47;24.33;;;0.10;99.90;;;;;;5057165;28;20482;-60
2023/01/21 01:04:05;;;;;;;49.92;26.23;;;0.20;99.90;;;;;;5054550;28;20412;-59
2023/01/21 01:06:31;;;;;;;49.10;25.83;;;0.20;99.90;;;;;;5052000;28;20055;-60
2023/01/21 01:08:57;;;;;;;44.00;24.33;;;0.20;99.90;;;;;;5054271;28;20028;-59
2023/01/21 01:11:25;;;;;;;47.13;26.65;;;0.10;99.90;;;;;;5053756;28;22011;-59
2023/01/21 01:13:51;;;;;;;45.95;24.52;;;-0.10;99.90;;;;;;5051605;28;20099;-60
2023/01/21 01:16:17;;;;;;;45.13;24.92;;;-0.10;99.90;;;;;;5052760;28;20683;-58
2023/01/21 01:18:43;;;;;;;43.88;24.40;;;-0.10;99.90;;;;;;5052729;28;20033;-60
2023/01/21 01:21:11;;;;;;;43.65;21.92;;;-0.10;99.90;;;;;;5054179;28;20041;-59
2023/01/21 01:23:37;;;;;;;47.50;25.95;;;-0.40;99.90;;;;;;5054610;28;20127;-59
2023/01/21 01:26:09;;;;;;;48.17;26.80;;;-0.20;99.90;;;;;;5051412;28;20136;-60
2023/01/21 01:28:35;;;;;;;47.80;25.40;;;-0.10;99.90;;;;;;5050972;28;20059;-59
2023/01/21 01:31:04;;;;;;;47.92;25.75;;;-0.10;99.90;;;;;;5055576;28;20431;-59
2023/01/21 01:33:29;;;;;;;46.95;25.88;;;-0.10;99.90;;;;;;5053815;28;20358;-59
2023/01/21 01:36:00;;;;;;;46.83;24.00;;;-0.20;99.90;;;;;;5055127;28;20052;-60
2023/01/21 01:38:26;;;;;;;45.28;25.88;;;-0.30;99.90;;;;;;5059199;28;20257;-58
2023/01/21 01:40:52;;;;;;;46.13;25.77;;;-0.40;99.90;;;;;;5050335;28;20508;-59
2023/01/21 01:43:23;;;;;;;47.65;25.92;;;-0.30;99.90;;;;;;5052718;28;20032;-59
2023/01/21 01:45:50;;;;;;;45.90;27.13;;;-0.30;99.90;;;;;;5055112;28;20044;-60
2023/01/21 01:48:28;;;;;;;45.25;25.48;;;-0.30;99.90;;;;;;5051850;28;20033;-60
2023/01/21 01:50:57;;;;;;;47.88;24.55;;;-0.30;99.90;;;;;;5057350;28;20032;-60
2023/01/21 01:53:23;;;;;;;45.03;24.15;;;-0.30;99.90;;;;;;5055646;28;20072;-60
2023/01/21 01:55:50;;;;;;;48.90;27.95;;;-0.50;99.90;;;;;;5052850;28;20396;-59
2023/01/21 01:58:18;;;;;;;48.67;25.45;;;-0.40;99.90;;;;;;5054483;28;20490;-58
2023/01/21 02:00:44;;;;;;;52.65;25.90;;;-0.50;99.90;;;;;;5057511;28;20064;-59
2023/01/21 02:05:55;;;;;;;47.97;27.00;;;-0.50;99.90;;;;;;5058928;28;20571;-58
2023/01/21 02:08:22;;;;;;;48.45;27.75;;;-0.50;99.90;;;;;;5060139;28;20036;-60
2023/01/21 02:10:48;;;;;;;46.83;25.58;;;-0.50;99.90;;;;;;5057820;28;20020;-60
2023/01/21 02:13:14;;;;;;;47.63;26.95;;;-0.50;99.90;;;;;;5057111;28;20381;-57
2023/01/21 02:15:48;;;;;;;51.45;27.58;;;-0.60;99.90;;;;;;5053886;28;20036;-59
2023/01/21 02:18:54;;;;;;;52.03;27.80;;;-0.50;99.90;;;;;;5057326;28;20036;-58
2023/01/21 02:21:32;;;;;;;40.22;20.60;;;-0.40;99.90;;;;;;5052059;28;20794;-60
2023/01/21 02:24:35;;;;;;;50.75;27.70;;;-0.50;99.90;;;;;;5057116;28;20124;-58
2023/01/21 02:27:11;;;;;;;52.47;27.77;;;-0.50;99.90;;;;;;5056255;28;20047;-58
2023/01/21 02:30:03;;;;;;;51.15;27.65;;;-0.40;99.90;;;;;;5060961;28;20120;-60
2023/01/21 02:33:02;;;;;;;47.28;26.73;;;-0.40;99.90;;;;;;5058295;28;20407;-59
2023/01/21 02:35:27;;;;;;;48.40;26.23;;;-0.50;99.90;;;;;;5052804;28;20044;-60
2023/01/21 02:38:21;;;;;;;50.58;27.35;;;-0.50;99.90;;;;;;5063029;28;20033;-59
2023/01/21 02:41:08;;;;;;;48.35;27.77;;;-0.50;99.90;;;;;;5055976;28;20059;-59
2023/01/21 02:43:50;;;;;;;50.10;27.73;;;-0.50;99.90;;;;;;5057580;28;20588;-59
2023/01/21 02:46:24;;;;;;;52.63;27.35;;;-0.30;99.90;;;;;;5058008;28;20033;-58
2023/01/21 02:48:58;;;;;;;47.97;27.17;;;-0.40;99.90;;;;;;5055236;28;20051;-59
2023/01/21 02:51:24;;;;;;;48.00;27.08;;;-0.40;99.90;;;;;;5052594;28;20090;-59
2023/01/21 02:53:49;;;;;;;49.50;26.73;;;-0.50;99.90;;;;;;5054174;28;20442;-57
2023/01/21 02:56:19;;;;;;;43.85;24.00;;;-0.40;99.90;;;;;;5053384;28;20540;-59
2023/01/21 02:58:56;;;;;;;47.30;26.33;;;-0.50;99.90;;;;;;5057639;28;20166;-60
2023/01/21 03:02:06;;;;;;;48.60;26.15;;;-0.40;99.90;;;;;;5063303;28;20051;-58
2023/01/21 03:04:58;;;;;;;51.65;26.77;;;-0.40;99.90;;;;;;5035996;28;20099;-57
2023/01/21 03:07:27;;;;;;;52.53;27.05;;;-0.20;99.90;;;;;;5030722;28;20445;-58
2023/01/21 03:10:00;;;;;;;49.03;27.33;;;-0.40;99.90;;;;;;5034655;28;20106;-60
2023/01/21 03:12:30;;;;;;;52.25;28.08;;;-0.50;99.90;;;;;;5029381;28;20045;-58
2023/01/21 03:18:40;;;;;;;51.30;26.02;;;-0.10;99.90;;;;;;5031285;28;20047;-60
2023/01/21 03:21:11;;;;;;;47.60;25.63;;;-0.30;99.90;;;;;;5047731;28;20039;-59
2023/01/21 03:23:43;;;;;;;48.85;26.08;;;-0.40;99.90;;;;;;5054715;28;20044;-57
2023/01/21 03:26:11;;;;;;;47.97;26.45;;;-0.50;99.90;;;;;;5051174;28;20484;-59
2023/01/21 03:28:43;;;;;;;51.05;26.50;;;-0.40;99.90;;;;;;5054595;28;20120;-60
2023/01/21 03:31:13;;;;;;;52.95;27.45;;;-0.50;99.90;;;;;;5053015;28;20033;-59
2023/01/21 03:33:44;;;;;;;48.28;26.30;;;-0.60;99.90;;;;;;5054982;28;20033;-60
2023/01/21 03:36:51;;;;;;;46.13;24.52;;;-0.70;99.90;;;;;;5055382;28;20036;-59
2023/01/21 03:39:39;;;;;;;48.28;27.17;;;-0.80;99.90;;;;;;5058117;28;20041;-59
2023/01/21 03:42:06;;;;;;;49.13;26.02;;;-0.60;99.90;;;;;;5052419;28;20037;-58
2023/01/21 03:44:32;;;;;;;53.28;26.73;;;-0.70;99.90;;;;;;5055501;28;20498;-59
2023/01/21 03:47:14;;;;;;;52.85;27.55;;;-0.60;99.90;;;;;;5056992;28;20047;-55
2023/01/21 03:49:48;;;;;;;53.90;27.95;;;-0.60;99.90;;;;;;5052204;28;20110;-60
2023/01/21 03:52:15;;;;;;;49.63;24.95;;;-0.70;99.90;;;;;;5054453;28;20043;-60
2023/01/21 03:54:41;;;;;;;51.88;27.55;;;-0.80;99.90;;;;;;5054976;28;20036;-60
2023/01/21 03:57:07;;;;;;;49.80;27.40;;;-0.80;99.90;;;;;;5059841;28;20476;-57
2023/01/21 03:59:32;;;;;;;50.72;27.40;;;-0.70;99.90;;;;;;5054229;28;20033;-59
2023/01/21 04:01:58;;;;;;;49.40;28.23;;;-0.60;99.90;;;;;;5058550;28;20415;-59
2023/01/21 04:04:23;;;;;;;53.92;29.35;;;-0.40;99.90;;;;;;5058065;28;20476;-55
2023/01/21 04:06:49;;;;;;;53.83;27.83;;;-0.60;99.90;;;;;;5058391;28;20041;-59
2023/01/21 04:09:14;;;;;;;49.47;28.02;;;-0.70;99.90;;;;;;5054513;28;20037;-59
2023/01/21 04:11:40;;;;;;;49.13;27.35;;;-0.60;99.90;;;;;;5054713;28;20395;-56
2023/01/21 04:14:06;;;;;;;54.83;29.30;;;-0.60;99.90;;;;;;5053580;28;20124;-59
2023/01/21 04:16:31;;;;;;;52.55;28.33;;;-0.50;99.90;;;;;;5056235;28;20041;-60
2023/01/21 04:18:57;;;;;;;46.72;25.98;;;-0.80;99.90;;;;;;5053367;28;20399;-59
2023/01/21 04:21:22;;;;;;;55.65;29.38;;;-0.90;99.90;;;;;;5056092;28;20147;-60
2023/01/21 04:23:48;;;;;;;57.10;30.00;;;-0.80;99.90;;;;;;5054084;28;20037;-57
2023/01/21 04:26:15;;;;;;;55.85;29.83;;;-0.60;99.90;;;;;;5051648;28;20028;-59
2023/01/21 04:28:41;;;;;;;59.38;30.38;;;-0.60;99.90;;;;;;5055470;28;20041;-60
2023/01/21 04:31:07;;;;;;;56.28;28.98;;;-0.40;99.90;;;;;;5052705;28;20029;-59
2023/01/21 04:33:32;;;;;;;53.53;28.45;;;-0.60;99.90;;;;;;5052214;28;20044;-59
2023/01/21 04:35:59;;;;;;;54.72;28.83;;;-0.70;99.90;;;;;;5058371;28;20123;-60
2023/01/21 04:38:24;;;;;;;53.20;29.40;;;-0.70;99.90;;;;;;5049734;28;20056;-58
2023/01/21 04:40:50;;;;;;;53.22;28.83;;;-0.60;99.90;;;;;;5053034;28;20068;-56
2023/01/21 04:43:15;;;;;;;51.67;26.77;;;-0.80;99.90;;;;;;5052434;28;20049;-59
2023/01/21 04:45:41;;;;;;;57.22;28.85;;;-0.80;99.90;;;;;;5053962;28;20025;-57
2023/01/21 04:48:07;;;;;;;53.65;28.20;;;-0.80;99.90;;;;;;5051182;28;21665;-60
2023/01/21 04:50:32;;;;;;;51.65;28.58;;;-0.90;99.90;;;;;;5055392;28;20053;-60
2023/01/21 04:52:58;;;;;;;54.35;28.90;;;-0.80;99.90;;;;;;5052461;28;20040;-59
2023/01/21 04:55:23;;;;;;;56.25;30.02;;;-1.00;99.90;;;;;;5057174;28;20045;-59
2023/01/21 04:57:49;;;;;;;57.22;30.70;;;-0.90;99.90;;;;;;5053841;28;20078;-60
2023/01/21 05:00:15;;;;;;;56.92;29.50;;;-1.10;99.90;;;;;;5052784;28;20040;-59
2023/01/21 05:02:41;;;;;;;59.40;28.50;;;-1.20;99.90;;;;;;5055832;28;20098;-60
2023/01/21 05:05:06;;;;;;;57.17;29.60;;;-1.20;99.90;;;;;;5050914;28;20444;-59
2023/01/21 05:07:32;;;;;;;49.65;28.05;;;-1.20;99.90;;;;;;5057383;28;20053;-59
2023/01/21 05:09:58;;;;;;;58.55;28.42;;;-1.30;99.90;;;;;;5053139;28;20116;-57
2023/01/21 05:12:23;;;;;;;57.17;29.35;;;-1.20;99.90;;;;;;5052427;28;20048;-58
2023/01/21 05:14:53;;;;;;;60.25;30.55;;;-1.10;99.90;;;;;;5052604;28;20376;-60
2023/01/21 05:17:19;;;;;;;56.13;29.13;;;-1.20;99.90;;;;;;5057044;28;20562;-58
2023/01/21 05:19:45;;;;;;;60.45;30.55;;;-1.10;99.90;;;;;;5053160;28;20068;-60
2023/01/21 05:22:10;;;;;;;54.13;29.77;;;-1.10;99.90;;;;;;5053651;28;20113;-61
2023/01/21 05:24:36;;;;;;;65.80;31.75;;;-1.10;99.90;;;;;;5054484;28;20071;-60
2023/01/21 05:27:01;;;;;;;55.67;30.98;;;-1.10;99.90;;;;;;5051286;28;20427;-57
2023/01/21 05:29:27;;;;;;;65.78;31.80;;;-1.10;99.90;;;;;;5054911;28;20468;-59
2023/01/21 05:31:53;;;;;;;58.38;31.83;;;-1.20;99.90;;;;;;5054318;28;20450;-60
2023/01/21 05:34:18;;;;;;;60.78;32.33;;;-1.00;99.90;;;;;;5052430;28;20506;-59
2023/01/21 05:36:44;;;;;;;57.53;30.00;;;-1.00;99.90;;;;;;5054869;28;20040;-58
2023/01/21 05:39:09;;;;;;;57.17;28.15;;;-0.90;99.90;;;;;;5052012;28;20040;-58
2023/01/21 05:41:35;;;;;;;56.45;28.92;;;;;;;;;;5055610;28;20131;-58
2023/01/21 05:44:01;;;;;;;61.53;30.85;;;-1.30;99.90;;;;;;5052199;28;20037;-57
2023/01/21 05:46:26;;;;;;;60.67;29.85;;;-1.10;99.90;;;;;;5053460;28;20403;-58
2023/01/21 05:48:52;;;;;;;62.10;30.35;;;-1.10;99.90;;;;;;5053319;28;20080;-60
2023/01/21 05:51:17;;;;;;;58.17;29.23;;;-1.20;99.90;;;;;;5050529;28;20053;-60
2023/01/21 05:53:44;;;;;;;59.08;27.98;;;-1.20;99.90;;;;;;5048983;28;20595;-59
2023/01/21 05:56:09;;;;;;;55.28;28.33;;;-1.20;99.90;;;;;;5055888;28;20147;-59
2023/01/21 05:58:35;;;;;;;59.70;31.77;;;-1.30;99.90;;;;;;5051900;28;20039;-58
2023/01/21 06:01:01;;;;;;;58.30;29.60;;;-1.30;99.90;;;;;;5055641;28;20443;-59
2023/01/21 06:03:26;;;;;;;56.95;29.10;;;-1.20;99.90;;;;;;5032942;28;20049;-58
2023/01/21 06:05:52;;;;;;;58.22;30.58;;;-1.10;99.90;;;;;;5053575;28;20116;-59
2023/01/21 06:08:18;;;;;;;59.83;30.55;;;-1.10;99.90;;;;;;5053407;28;20025;-59
2023/01/21 06:10:44;;;;;;;59.13;30.33;;;-1.00;99.90;;;;;;5059916;28;20043;-58
2023/01/21 06:13:13;;;;;;;60.38;29.95;;;-0.80;99.90;;;;;;5054359;28;20039;-60
2023/01/21 06:15:39;;;;;;;58.10;29.90;;;-1.10;99.90;;;;;;5054547;28;20037;-57
2023/01/21 06:18:05;;;;;;;58.65;29.05;;;-1.00;99.90;;;;;;5051875;28;20042;-58
2023/01/21 06:20:31;;;;;;;62.17;30.92;;;-1.00;99.90;;;;;;5053174;28;20048;-60
2023/01/21 06:22:57;;;;;;;57.33;30.27;;;-0.90;99.90;;;;;;5054258;28;20029;-59
2023/01/21 06:25:24;;;;;;;61.28;31.52;;;-0.90;99.90;;;;;;5057508;28;20035;-60
2023/01/21 06:27:49;;;;;;;63.28;31.45;;;-0.90;99.90;;;;;;5051353;28;20139;-60
2023/01/21 06:30:15;;;;;;;60.72;31.42;;;-0.70;99.90;;;;;;5053147;28;20036;-61
2023/01/21 06:32:41;;;;;;;57.83;31.02;;;-0.80;99.90;;;;;;5048974;28;20033;-60
2023/01/21 06:35:07;;;;;;;60.50;31.17;;;-0.80;99.90;;;;;;5050916;28;20032;-60
2023/01/21 06:37:33;;;;;;;55.55;29.20;;;-0.90;99.90;;;;;;5052972;28;20061;-60
2023/01/21 06:39:58;;;;;;;58.80;29.95;;;-1.00;99.90;;;;;;5052683;28;20069;-60
2023/01/21 06:42:24;;;;;;;60.13;29.73;;;-1.10;99.90;;;;;;5052600;28;20396;-60
2023/01/21 06:44:49;;;;;;;57.10;29.45;;;-1.00;99.90;;;;;;5053368;28;20056;-59
2023/01/21 06:47:15;;;;;;;53.15;28.90;;;-1.00;99.90;;;;;;5051156;28;20499;-60
2023/01/21 06:49:40;;;;;;;53.15;28.48;;;-1.00;99.90;;;;;;5053230;28;20403;-58
2023/01/21 06:52:06;;;;;;;60.22;30.55;;;-0.90;99.90;;;;;;5050252;28;20107;-60
2023/01/21 06:54:31;;;;;;;59.53;32.30;;;-1.00;99.90;;;;;;5058940;28;20162;-60
2023/01/21 06:56:57;;;;;;;56.28;29.70;;;-1.10;99.90;;;;;;5057131;28;20051;-58
2023/01/21 06:59:23;;;;;;;58.92;28.70;;;-1.00;99.90;;;;;;5055596;28;20044;-60
2023/01/21 07:01:48;;;;;;;55.40;29.95;;;-1.00;99.90;;;;;;5054021;28;20036;-60
2023/01/21 07:04:14;;;;;;;58.55;28.55;;;-1.00;99.90;;;;;;5058524;28;20652;-58
2023/01/21 07:06:39;;;;;;;53.33;28.58;;;-1.00;99.90;;;;;;5057796;28;20044;-59
2023/01/21 07:09:07;;;;;;;56.40;27.98;;;-1.00;99.90;;;;;;5057571;28;20144;-59
2023/01/21 07:11:33;;;;;;;57.20;27.75;;;-1.30;99.90;;;;;;5059824;28;20043;-58
2023/01/21 07:13:59;;;;;;;67.75;33.15;;;-1.50;99.90;;;;;;5065534;28;20032;-58
2023/01/21 07:16:24;;;;;;;63.30;31.17;;;-1.50;99.90;;;;;;5060269;28;20045;-58
2023/01/21 07:18:50;;;;;;;68.18;32.30;;;-1.60;99.90;;;;;;5052474;28;20036;-60
2023/01/21 07:21:15;;;;;;;60.85;30.42;;;-1.40;99.90;;;;;;5055221;28;20132;-59
2023/01/21 07:23:41;;;;;;;62.92;30.42;;;-1.40;99.90;;;;;;5054434;28;20040;-59
2023/01/21 07:26:07;;;;;;;69.28;33.35;;;-1.10;99.90;;;;;;5055686;28;20045;-60
2023/01/21 07:28:32;;;;;;;64.57;29.33;;;-1.20;99.90;;;;;;5054474;28;20539;-60
2023/01/21 07:30:59;;;;;;;63.88;29.58;;;-1.20;99.90;;;;;;5055574;28;20040;-60
2023/01/21 07:33:24;;;;;;;65.32;31.60;;;-1.40;99.90;;;;;;5057690;28;20115;-59
2023/01/21 07:35:50;;;;;;;69.50;31.30;;;-1.30;99.90;;;;;;5056029;28;20044;-57
2023/01/21 07:38:16;;;;;;;65.07;32.17;;;-1.30;99.90;;;;;;5059301;28;20514;-59
2023/01/21 07:40:41;;;;;;;68.18;32.90;;;-1.40;99.90;;;;;;5059721;28;20490;-59
2023/01/21 07:43:08;;;;;;;61.55;30.42;;;-1.40;99.90;;;;;;5056436;28;20400;-60
2023/01/21 07:45:34;;;;;;;66.63;31.63;;;-1.40;99.90;;;;;;5057619;28;20035;-59
2023/01/21 07:47:59;;;;;;;71.13;33.55;;;-1.40;99.90;;;;;;5059808;28;20044;-59
2023/01/21 07:50:25;;;;;;;74.00;33.63;;;-1.40;99.90;;;;;;5055031;28;20085;-59
2023/01/21 07:52:53;;;;;;;63.20;32.03;;;-1.40;99.90;;;;;;5059186;28;20036;-60
2023/01/21 07:55:19;;;;;;;71.35;33.55;;;-1.40;99.90;;;;;;5055521;28;20767;-60
2023/01/21 07:57:45;;;;;;;65.25;31.98;;;-1.20;99.90;;;;;;5052033;28;20091;-58
2023/01/21 08:00:11;;;;;;;73.20;33.53;;;-1.20;99.90;;;;;;5051479;28;20037;-59
2023/01/21 08:02:37;;;;;;;67.95;32.10;;;-1.20;99.90;;;;;;5052396;28;20710;-59
2023/01/21 08:05:03;;;;;;;62.80;31.80;;;-1.30;99.90;;;;;;5052768;28;20041;-60
2023/01/21 08:07:28;;;;;;;72.68;34.05;;;-1.40;99.90;;;;;;5054634;28;20045;-59
2023/01/21 08:09:54;;;;;;;71.72;34.38;;;-1.30;99.90;;;;;;5052471;28;20036;-59
2023/01/21 08:12:19;;;;;;;74.35;34.70;;;-1.30;99.90;;;;;;5057079;28;20363;-57
2023/01/21 08:14:45;;;;;;;73.97;34.42;;;-1.30;99.90;;;;;;5056067;28;20040;-60
2023/01/21 08:17:10;;;;;;;73.35;33.17;;;-1.00;99.90;;;;;;5057515;28;20068;-60
2023/01/21 08:19:36;;;;;;;71.90;34.40;;;-1.00;99.90;;;;;;5053108;28;20045;-59
2023/01/21 08:22:01;;;;;;;75.47;37.13;;;-1.10;99.90;;;;;;5055413;28;20032;-57
2023/01/21 08:24:27;;;;;;;70.85;34.90;;;-1.00;99.90;;;;;;5058584;28;20052;-60
2023/01/21 08:26:57;;;;;;;74.70;36.40;;;-1.00;99.90;;;;;;5055889;28;20037;-59
2023/01/21 08:29:22;;;;;;;70.00;34.72;;;-1.20;99.90;;;;;;5056083;28;20488;-60
2023/01/21 08:31:48;;;;;;;81.75;36.08;;;-1.00;99.90;;;;;;5055222;28;20047;-60
2023/01/21 08:34:14;;;;;;;77.50;36.20;;;-0.70;99.90;;;;;;5053330;28;20044;-60
2023/01/21 08:36:40;;;;;;;76.75;35.75;;;-0.70;99.90;;;;;;5055411;28;20068;-61
2023/01/21 08:39:05;;;;;;;68.90;34.60;;;-0.70;99.90;;;;;;5053708;28;20067;-60
2023/01/21 08:41:32;;;;;;;82.72;37.63;;;-0.80;99.90;;;;;;5049900;28;20064;-59
2023/01/21 08:43:58;;;;;;;85.00;38.40;;;-1.00;99.90;;;;;;5047109;28;20111;-58
2023/01/21 08:46:23;;;;;;;81.32;38.63;;;-1.10;99.90;;;;;;5053349;28;20071;-58
2023/01/21 08:48:50;;;;;;;87.43;42.53;;;-1.10;99.90;;;;;;5050450;28;20029;-60
2023/01/21 08:51:16;;;;;;;82.30;42.03;;;-1.20;99.90;;;;;;5052057;28;20068;-60
2023/01/21 08:53:41;;;;;;;75.07;38.33;;;-1.10;99.90;;;;;;5056546;28;20784;-59
2023/01/21 08:56:07;;;;;;;78.45;38.22;;;-1.20;99.90;;;;;;5055685;28;20062;-60
2023/01/21 08:58:33;;;;;;;83.88;40.05;;;-1.10;99.90;;;;;;5052678;28;20041;-61
2023/01/21 09:01:06;;;;;;;80.30;39.70;;;-1.10;99.90;;;;;;5052325;28;20120;-60
2023/01/21 09:03:31;;;;;;;86.00;40.00;;;-1.00;99.90;;;;;;5051488;28;20159;-60
2023/01/21 09:06:01;;;;;;;84.30;39.80;;;-1.00;99.90;;;;;;5048765;28;20131;-60
2023/01/21 09:08:27;;;;;;;88.03;40.22;;;-0.90;99.90;;;;;;5053610;28;20040;-59
2023/01/21 09:11:00;;;;;;;82.47;39.47;;;-0.80;99.90;;;;;;5050258;28;20124;-59
2023/01/21 09:13:27;;;;;;;86.78;40.13;;;-0.70;99.90;;;;;;5047961;28;20040;-60
2023/01/21 09:15:52;;;;;;;83.40;39.08;;;-0.70;99.90;;;;;;5051978;28;20033;-61
2023/01/21 09:18:18;;;;;;;81.45;38.10;;;-0.70;99.90;;;;;;5059509;28;20039;-60
2023/01/21 09:20:44;;;;;;;80.78;36.10;;;-0.80;99.90;;;;;;5058027;28;20096;-61
2023/01/21 09:23:25;;;;;;;82.68;36.03;;;-0.70;99.90;;;;;;5049569;28;20081;-60
2023/01/21 09:25:59;;;;;;;80.13;35.35;;;-0.80;99.90;;;;;;5051250;28;20029;-60
2023/01/21 09:28:25;;;;;;;79.75;38.15;;;-0.60;99.90;;;;;;5051610;28;20036;-61
2023/01/21 09:30:58;;;;;;;75.72;33.20;;;-0.60;99.90;;;;;;5056657;28;20090;-61
2023/01/21 09:33:25;;;;;;;75.55;36.63;;;-0.70;99.90;;;;;;5051492;28;20033;-60
2023/01/21 09:35:58;;;;;;;71.93;32.65;;;-0.60;99.90;;;;;;5054395;28;20040;-61
2023/01/21 09:38:25;;;;;;;78.95;37.30;;;-0.40;99.90;;;;;;5051535;28;20037;-61
2023/01/21 09:40:52;;;;;;;76.43;36.40;;;-0.50;99.90;;;;;;5050324;28;20091;-61
2023/01/21 09:43:25;;;;;;;75.80;36.80;;;-0.40;99.90;;;;;;5054252;28;20400;-61
2023/01/21 09:45:54;;;;;;;79.57;36.78;;;-0.10;99.90;;;;;;5051370;28;20094;-59
2023/01/21 09:48:36;;;;;;;77.55;36.30;;;-0.30;99.90;;;;;;5049144;28;20049;-61
2023/01/21 09:51:08;;;;;;;76.95;34.08;;;-0.40;99.90;;;;;;5054090;28;20399;-60
2023/01/21 09:53:51;;;;;;;63.67;25.98;;;-0.40;99.90;;;;;;5049880;28;20447;-60
2023/01/21 09:56:29;;;;;;;;;;;-0.40;99.90;;;;;;5051841;28;20033;-60
2023/01/21 09:59:15;;;;;;;74.00;33.95;;;-0.30;99.90;;;;;;5051663;28;19931;-61
2023/01/21 10:01:42;;;;;;;77.93;32.35;;;-0.40;99.90;;;;;;5049669;28;20040;-60
2023/01/21 10:04:26;;;;;;;78.15;34.75;;;-0.40;99.90;;;;;;5050387;28;20072;-58
2023/01/21 10:07:17;;;;;;;78.88;37.17;;;-0.30;99.90;;;;;;5042842;28;20116;-60
2023/01/21 10:09:48;;;;;;;75.05;32.78;;;-0.30;99.90;;;;;;5050473;28;20550;-61
2023/01/21 10:12:32;;;;;;;79.30;35.72;;;-0.40;99.90;;;;;;5050951;28;20047;-60
2023/01/21 10:15:25;;;;;;;77.20;35.15;;;-0.30;99.90;;;;;;5055340;28;20039;-60
2023/01/21 10:18:12;;;;;;;85.07;36.90;;;-0.20;99.90;;;;;;5061550;28;20048;-61
2023/01/21 10:20:47;;;;;;;84.45;36.60;;;-0.10;99.90;;;;;;5061761;28;20033;-60
2023/01/21 10:23:26;;;;;;;81.57;36.88;;;0.10;99.90;;;;;;5056722;28;20020;-59
2023/01/21 10:25:51;;;;;;;81.45;37.60;;;0.00;99.90;;;;;;5054458;28;20036;-61
2023/01/21 10:28:23;;;;;;;87.25;37.38;;;0.00;99.90;;;;;;5061531;28;20036;-62
2023/01/21 10:30:56;;;;;;;87.15;36.38;;;0.10;99.90;;;;;;5062461;28;20056;-60
2023/01/21 10:33:23;;;;;;;;;;;0.10;99.90;;;;;;5064675;28;20568;-60
2023/01/21 10:36:09;;;;;;;81.80;36.30;;;0.10;99.90;;;;;;5064926;28;20577;-60
2023/01/21 10:38:40;;;;;;;91.10;35.42;;;0.20;99.90;;;;;;5061700;28;20111;-61
2023/01/21 10:41:19;;;;;;;78.85;34.00;;;0.10;99.90;;;;;;5061693;28;20045;-63
2023/01/21 10:44:03;;;;;;;86.32;38.42;;;0.20;99.90;;;;;;5061790;28;20499;-61
2023/01/21 10:46:46;;;;;;;82.68;36.70;;;0.40;99.90;;;;;;5056924;28;20518;-58
2023/01/21 10:49:37;;;;;;;80.22;36.72;;;0.40;99.90;;;;;;5062452;28;20024;-62
2023/01/21 10:52:11;;;;;;;85.65;36.67;;;0.50;99.90;;;;;;5054538;28;20067;-62
2023/01/21 10:55:11;;;;;;;81.00;35.10;;;0.60;99.90;;;;;;5059802;28;20032;-62
2023/01/21 10:58:13;;;;;;;78.88;35.58;;;0.80;99.90;;;;;;5061367;28;20043;-62
2023/01/21 11:00:47;;;;;;;74.78;34.90;;;0.70;99.90;;;;;;5059678;28;20025;-62
2023/01/21 11:03:19;;;;;;;79.50;34.85;;;0.90;99.90;;;;;;5059849;28;20036;-58
2023/01/21 11:05:45;;;;;;;53.67;26.13;;;1.20;99.90;;;;;;5063480;28;20021;-58
2023/01/21 11:08:18;;;;;;;84.45;35.92;;;1.20;99.90;;;;;;5062877;28;20043;-60
2023/01/21 11:10:46;;;;;;;77.38;34.92;;;1.30;99.90;;;;;;5063815;28;20036;-60
2023/01/21 11:13:13;;;;;;;77.95;34.65;;;1.20;99.90;;;;;;5058359;28;20341;-61
2023/01/21 11:15:45;;;;;;;80.22;35.13;;;1.10;99.90;;;;;;5059755;28;20037;-58
2023/01/21 11:18:27;;;;;;;76.43;34.75;;;1.20;99.90;;;;;;5061076;28;20167;-62
2023/01/21 11:20:57;;;;;;;75.13;34.07;;;1.00;99.90;;;;;;5060404;28;20072;-58
2023/01/21 11:23:27;;;;;;;79.55;34.17;;;1.10;99.90;;;;;;5058932;28;20364;-61
2023/01/21 11:26:03;;;;;;;74.97;34.03;;;1.50;99.90;;;;;;5058921;28;20479;-59
2023/01/21 11:28:29;;;;;;;72.15;33.38;;;1.40;99.90;;;;;;5061288;28;20043;-61
2023/01/21 11:31:07;;;;;;;66.50;31.10;;;1.20;99.90;;;;;;5059394;28;20043;-61
2023/01/21 11:33:34;;;;;;;62.38;29.70;;;1.30;99.90;;;;;;5056864;28;20568;-58
2023/01/21 11:36:20;;;;;;;65.47;30.50;;;1.30;99.90;;;;;;5066311;28;20032;-58
2023/01/21 11:39:02;;;;;;;60.55;29.40;;;1.50;99.90;;;;;;5055046;28;20495;-58
2023/01/21 11:41:28;;;;;;;55.35;25.50;;;1.50;99.90;;;;;;5057751;28;20113;-59
2023/01/21 11:44:15;;;;;;;56.20;27.88;;;1.60;99.90;;;;;;5058236;28;20480;-59
2023/01/21 11:46:40;;;;;;;50.15;24.55;;;1.50;99.90;;;;;;5062158;28;20534;-60
2023/01/21 11:49:06;;;;;;;48.25;24.35;;;1.60;99.90;;;;;;5060091;28;20028;-59
2023/01/21 11:51:36;;;;;;;43.97;22.40;;;1.70;99.90;;;;;;5063578;28;20039;-61
2023/01/21 11:54:13;;;;;;;38.70;19.55;;;1.70;99.90;;;;;;5056859;28;20403;-58
2023/01/21 11:56:42;;;;;;;42.55;21.35;;;1.80;99.90;;;;;;5053094;28;20322;-61
2023/01/21 11:59:20;;;;;;;34.83;17.63;;;1.90;99.90;;;;;;5055710;28;20385;-61
2023/01/21 12:01:52;;;;;;;33.80;16.55;;;1.90;99.90;;;;;;5058320;28;20033;-61
2023/01/21 12:04:17;;;;;;;35.55;19.13;;;2.00;99.90;;;;;;5052933;28;20432;-61
2023/01/21 12:06:46;;;;;;;35.95;20.55;;;2.10;99.90;;;;;;5049157;28;20041;-58
2023/01/21 12:09:17;;;;;;;40.95;20.73;;;2.10;99.90;;;;;;5056838;28;20043;-60
2023/01/21 12:12:01;;;;;;;43.63;23.30;;;2.20;99.90;;;;;;5054338;28;20256;-61
2023/01/21 12:14:41;;;;;;;44.78;23.15;;;2.30;99.90;;;;;;5051916;28;20078;-61
2023/01/21 12:17:31;;;;;;;42.28;22.42;;;2.20;99.90;;;;;;5055820;28;21944;-60
2023/01/21 12:20:12;;;;;;;46.13;24.00;;;2.20;99.90;;;;;;5055535;28;20041;-61
2023/01/21 12:22:48;;;;;;;48.42;24.63;;;2.00;99.90;;;;;;5058532;28;20169;-61
2023/01/21 12:25:13;;;;;;;48.35;25.20;;;1.90;99.90;;;;;;5056312;28;20032;-61
2023/01/21 12:28:02;;;;;;;48.88;24.70;;;2.00;99.90;;;;;;5058208;28;20045;-61
2023/01/21 12:30:57;;;;;;;50.95;24.73;;;2.10;99.90;;;;;;5058963;28;20418;-59
2023/01/21 12:33:47;;;;;;;52.67;26.40;;;1.90;99.90;;;;;;5052472;28;20044;-59
2023/01/21 12:36:15;;;;;;;52.50;26.05;;;1.80;99.90;;;;;;5056290;28;20052;-58
2023/01/21 12:38:48;;;;;;;51.80;26.67;;;1.90;99.90;;;;;;5055178;28;20040;-61
2023/01/21 12:41:26;;;;;;;42.43;20.53;;;1.80;99.90;;;;;;5054596;28;20044;-60
2023/01/21 12:44:13;;;;;;;53.42;25.65;;;2.00;99.90;;;;;;5053320;28;20071;-61
2023/01/21 12:46:46;;;;;;;50.80;25.52;;;2.20;99.90;;;;;;5053937;28;20483;-61
2023/01/21 12:49:28;;;;;;;46.38;24.98;;;2.10;99.90;;;;;;5048065;28;20143;-60
2023/01/21 12:52:00;;;;;;;46.17;24.17;;;2.10;99.90;;;;;;5056304;28;20024;-59